createdAt,value
2019-02-02T00:02:06.549Z,44.00
2019-02-02T00:15:29.441Z,44.20
2019-02-02T00:28:52.179Z,44.30
2019-02-02T00:55:49.982Z,44.50
2019-02-02T01:08:57.157Z,44.50
2019-02-02T01:22:04.500Z,44.50
2019-02-02T01:35:11.618Z,44.50
2019-02-02T02:01:21.640Z,44.60
2019-02-02T02:14:28.763Z,44.60
2019-02-02T02:27:35.947Z,44.70
2019-02-02T02:40:43.238Z,45.40
2019-02-02T02:53:50.417Z,44.80
2019-02-02T03:06:57.732Z,44.80
2019-02-02T03:20:21.392Z,44.80
2019-02-02T03:33:44.191Z,44.80
2019-02-02T03:47:06.963Z,44.90
2019-02-02T04:00:29.821Z,44.90
2019-02-02T04:13:52.608Z,45.00
2019-02-02T04:27:15.454Z,44.70
2019-02-02T04:40:38.233Z,44.50
2019-02-02T04:54:01.226Z,44.50
2019-02-02T05:07:23.947Z,44.60
2019-02-02T05:20:46.837Z,44.40
2019-02-02T05:47:11.215Z,44.30
2019-02-02T06:00:18.435Z,44.30
2019-02-02T06:13:25.997Z,44.30
2019-02-02T06:39:37.056Z,44.40
2019-02-02T06:52:44.388Z,44.70
2019-02-02T07:05:51.582Z,45.00
2019-02-02T07:18:58.885Z,44.20
2019-02-02T07:32:06.042Z,44.20
2019-02-02T07:45:13.549Z,44.10
2019-02-02T07:58:36.705Z,43.90
2019-02-02T08:11:59.498Z,43.90
2019-02-02T08:25:22.346Z,44.10
2019-02-02T08:38:45.114Z,44.40
2019-02-02T08:52:08.032Z,36.80
2019-02-02T09:05:30.784Z,36.50
2019-02-02T09:18:53.590Z,39.20
2019-02-02T09:32:16.518Z,39.90
2019-02-02T09:45:39.215Z,40.40
2019-02-02T09:59:02.045Z,40.80
2019-02-02T10:12:24.856Z,41.10
2019-02-02T10:25:47.768Z,36.80
2019-02-02T10:39:10.482Z,45.00
2019-02-02T10:52:33.345Z,39.00
2019-02-02T11:05:56.686Z,37.70
2019-02-02T11:19:19.046Z,38.90
2019-02-02T11:32:41.846Z,39.40
2019-02-02T11:46:04.542Z,39.80
2019-02-02T12:10:22.712Z,40.80
2019-02-02T12:23:45.550Z,41.80
2019-02-02T12:37:08.318Z,40.80
2019-02-02T12:50:31.287Z,41.10
2019-02-02T13:16:55.611Z,41.60
2019-02-02T13:30:02.752Z,41.90
2019-02-02T13:43:09.930Z,42.00
2019-02-02T13:56:17.155Z,42.20
2019-02-02T14:09:24.345Z,42.30
2019-02-02T14:35:34.338Z,42.40
2019-02-02T14:48:41.623Z,42.50
2019-02-02T15:14:53.817Z,45.20
2019-02-02T15:28:01.039Z,45.80
2019-02-02T16:07:19.372Z,47.60
2019-02-02T16:20:26.724Z,47.80
2019-02-02T16:33:34.109Z,47.40
2019-02-02T16:46:41.377Z,45.60
2019-02-02T16:59:48.592Z,45.40
2019-02-02T17:13:12.597Z,44.80
2019-02-02T17:26:35.481Z,44.10
2019-02-02T17:39:58.236Z,45.80
2019-02-02T18:06:22.762Z,37.30
2019-02-02T18:19:30.126Z,36.80
2019-02-02T18:32:37.258Z,36.00
2019-02-02T18:45:44.460Z,36.50
2019-02-02T18:58:51.705Z,37.60
2019-02-02T19:11:58.922Z,38.20
2019-02-02T19:25:22.491Z,38.80
2019-02-02T19:38:45.291Z,39.50
2019-02-02T19:52:08.177Z,39.80
2019-02-02T20:05:31.157Z,40.10
2019-02-02T20:18:53.799Z,40.20
2019-02-02T20:45:52.384Z,40.70
2019-02-02T20:58:59.608Z,40.80
2019-02-02T21:12:06.805Z,41.00
2019-02-02T21:25:14.024Z,41.10
2019-02-02T21:38:37.801Z,41.40
2019-02-02T21:52:00.600Z,41.50
2019-02-02T22:05:23.405Z,41.50
2019-02-02T22:18:46.311Z,41.60
2019-02-02T22:43:05.495Z,41.10
2019-02-02T22:56:27.243Z,41.70
2019-02-02T23:09:50.082Z,41.60
2019-02-02T23:23:12.900Z,41.80
2019-02-02T23:36:35.731Z,41.90
2019-02-02T23:49:58.527Z,42.10
